Time;durP1;ratioP1;P1;durP2;ratioP2;P2;SDS_P1;SDS_P2;PMS_P1;PMS_P2;Temp;Humidity;BMP_temperature;BMP_pressure;BME280_temperature;BME280_humidity;BME280_pressure;Samples;Min_cycle;Max_cycle;Signal;HPM_P1;HPM_P2
2021/12/28 00:01:09;;;;;;;25.57;5.13;;;;;9.60;98866.00;;;;10342577;28;20614;-78
2021/12/28 00:06:13;;;;;;;30.07;6.13;;;;;9.70;98861.00;;;;10349520;28;20194;-79
2021/12/28 00:11:16;;;;;;;33.73;5.80;;;;;9.70;98852.00;;;;10333037;28;20195;-78
2021/12/28 00:21:20;;;;;;;34.00;6.47;;;;;9.80;98841.00;;;;10341444;28;20215;-78
2021/12/28 00:26:23;;;;;;;32.97;6.57;;;;;9.80;98840.00;;;;10361894;28;20203;-79
2021/12/28 00:31:26;;;;;;;41.53;7.47;;;;;9.80;98840.00;;;;10344791;28;20200;-78
2021/12/28 00:36:28;;;;;;;35.13;6.67;;;;;9.90;98833.00;;;;10339973;28;20277;-78
2021/12/28 00:41:30;;;;;;;43.47;7.60;;;;;9.90;98828.00;;;;10336726;28;20207;-79
2021/12/28 00:46:32;;;;;;;29.53;6.40;;;;;9.90;98810.00;;;;10326285;28;20679;-78
2021/12/28 00:51:34;;;;;;;35.60;7.23;;;;;9.90;98811.00;;;;10342466;28;20195;-79
2021/12/28 00:56:36;;;;;;;32.00;6.53;;;;;9.90;98818.00;;;;10341420;28;20207;-78
2021/12/28 01:01:38;;;;;;;30.20;5.47;;;;;9.90;98810.00;;;;10354980;28;20231;-79
2021/12/28 01:06:40;;;;;;;30.53;5.07;;;;;9.90;98794.00;;;;10333086;28;20211;-78
2021/12/28 01:11:42;;;;;;;35.30;6.23;;;;;10.00;98797.00;;;;10339590;28;20203;-78
2021/12/28 01:16:44;;;;;;;36.13;6.53;;;;;10.00;98801.00;;;;10381317;28;20211;-78
2021/12/28 01:21:46;;;;;;;28.00;5.63;;;;;9.90;98787.00;;;;10350614;28;20203;-78
2021/12/28 01:26:48;;;;;;;26.83;5.10;;;;;9.90;98780.00;;;;10318350;28;20208;-78
2021/12/28 01:31:50;;;;;;;26.93;5.40;;;;;9.80;98779.00;;;;10367515;28;20225;-78
2021/12/28 01:36:52;;;;;;;28.20;4.47;;;;;9.80;98778.00;;;;10325039;28;20219;-78
2021/12/28 01:41:54;;;;;;;28.97;5.23;;;;;9.70;98763.00;;;;10363823;28;20206;-79
2021/12/28 01:46:56;;;;;;;32.70;4.93;;;;;9.70;98776.00;;;;10349231;28;20191;-79
2021/12/28 01:51:59;;;;;;;25.40;4.50;;;;;9.80;98766.00;;;;10363860;28;20237;-79
2021/12/28 01:57:02;;;;;;;22.63;4.93;;;;;9.80;98763.00;;;;10387137;28;20622;-78
2021/12/28 02:02:04;;;;;;;18.77;3.90;;;;;9.80;98772.00;;;;10368692;28;20231;-78
2021/12/28 02:07:06;;;;;;;20.70;3.97;;;;;9.80;98766.00;;;;10362866;28;20602;-78
2021/12/28 02:12:08;;;;;;;20.27;4.70;;;;;9.80;98748.00;;;;10372674;28;20652;-78
2021/12/28 02:17:11;;;;;;;26.73;4.70;;;;;9.80;98759.00;;;;10369299;28;20220;-78
2021/12/28 02:24:24;;;;;;;20.17;4.27;;;;;9.70;98769.00;;;;10577006;27;20575;-77
2021/12/28 02:29:26;;;;;;;17.43;5.20;;;;;9.60;98765.00;;;;10572482;28;20200;-77
2021/12/28 02:34:28;;;;;;;25.87;3.90;;;;;9.60;98758.00;;;;10541202;28;20238;-77
2021/12/28 02:39:30;;;;;;;24.07;4.70;;;;;9.60;98759.00;;;;10578035;28;20200;-77
2021/12/28 02:44:32;;;;;;;21.03;3.57;;;;;9.60;98759.00;;;;10585130;28;20192;-77
2021/12/28 02:49:37;;;;;;;15.83;3.67;;;;;9.60;98752.00;;;;10540995;28;20239;-77
2021/12/28 02:54:39;;;;;;;31.00;4.20;;;;;9.70;98748.00;;;;10574551;28;20239;-77
2021/12/28 02:59:49;;;;;;;12.17;3.03;;;;;9.80;98752.00;;;;10531383;28;20254;-77
2021/12/28 03:04:52;;;;;;;14.90;3.63;;;;;9.80;98748.00;;;;10499081;28;20226;-77
2021/12/28 03:09:54;;;;;;;12.97;3.00;;;;;9.80;98751.00;;;;10539219;28;20200;-77
2021/12/28 03:14:55;;;;;;;15.97;2.83;;;;;9.80;98758.00;;;;10514767;28;20189;-77
2021/12/28 03:19:57;;;;;;;15.87;3.47;;;;;9.80;98766.00;;;;10540925;28;20216;-77
2021/12/28 03:24:59;;;;;;;16.83;3.83;;;;;9.80;98764.00;;;;10522947;28;20185;-77
2021/12/28 03:30:03;;;;;;;15.87;2.93;;;;;9.70;98750.00;;;;10525670;28;20173;-77
2021/12/28 03:35:09;;;;;;;11.97;2.57;;;;;9.70;98739.00;;;;10473217;28;20299;-76
2021/12/28 03:40:14;;;;;;;12.27;2.87;;;;;9.60;98737.00;;;;10496264;28;20304;-77
2021/12/28 03:45:15;;;;;;;8.43;2.40;;;;;9.60;98733.00;;;;10478355;28;20196;-77
2021/12/28 03:50:19;;;;;;;11.13;2.97;;;;;9.60;98733.00;;;;10510386;28;20287;-76
2021/12/28 03:55:23;;;;;;;13.17;2.43;;;;;9.60;98735.00;;;;10500990;28;20251;-77
2021/12/28 04:00:28;;;;;;;7.20;2.20;;;;;9.70;98726.00;;;;10491389;28;20209;-77
2021/12/28 04:05:30;;;;;;;5.47;1.73;;;;;9.70;98730.00;;;;10509704;28;20219;-77
2021/12/28 04:10:38;;;;;;;5.63;1.80;;;;;9.80;98727.00;;;;10504556;28;20595;-77
2021/12/28 04:15:40;;;;;;;10.70;1.93;;;;;9.80;98729.00;;;;10496414;28;20228;-77
2021/12/28 04:20:43;;;;;;;7.50;1.90;;;;;9.80;98729.00;;;;10500715;28;20224;-77
2021/12/28 04:25:45;;;;;;;9.27;2.27;;;;;9.80;98714.00;;;;10476732;28;20190;-77
2021/12/28 04:30:46;;;;;;;5.83;1.87;;;;;9.80;98719.00;;;;10509868;28;20192;-77
2021/12/28 04:35:49;;;;;;;7.00;1.40;;;;;9.80;98721.00;;;;10525284;28;20254;-77
2021/12/28 04:40:51;;;;;;;4.63;1.50;;;;;9.90;98715.00;;;;10556186;28;20243;-77
2021/12/28 04:45:53;;;;;;;5.87;1.47;;;;;9.90;98711.00;;;;10553263;28;20623;-77
2021/12/28 04:50:55;;;;;;;1.93;1.23;;;;;9.80;98709.00;;;;10482800;28;20217;-77
2021/12/28 04:55:58;;;;;;;5.80;1.43;;;;;9.80;98711.00;;;;10466550;28;20228;-76
2021/12/28 05:01:00;;;;;;;5.67;1.37;;;;;9.80;98713.00;;;;10499364;28;20292;-77
2021/12/28 05:06:03;;;;;;;8.33;1.90;;;;;9.70;98710.00;;;;10466261;28;20897;-76
2021/12/28 05:11:05;;;;;;;4.47;1.57;;;;;9.70;98705.00;;;;10533382;28;20185;-77
2021/12/28 05:16:10;;;;;;;4.27;1.40;;;;;9.80;98709.00;;;;10496723;28;20189;-77
2021/12/28 05:21:12;;;;;;;4.00;1.30;;;;;9.80;98705.00;;;;10484971;28;20331;-77
2021/12/28 05:26:14;;;;;;;6.37;1.60;;;;;9.80;98700.00;;;;10480825;28;20212;-77
2021/12/28 05:31:16;;;;;;;2.63;1.37;;;;;9.70;98688.00;;;;10491533;28;20192;-77
2021/12/28 05:36:19;;;;;;;2.67;1.43;;;;;9.70;98675.00;;;;10515967;28;20308;-77
2021/12/28 05:41:21;;;;;;;8.87;2.13;;;;;9.70;98688.00;;;;10481672;28;20206;-77
2021/12/28 05:46:24;;;;;;;6.37;2.00;;;;;9.70;98688.00;;;;10499537;28;20652;-77
2021/12/28 05:51:26;;;;;;;3.23;1.70;;;;;9.60;98681.00;;;;10493905;28;20244;-77
2021/12/28 05:56:27;;;;;;;4.87;1.60;;;;;9.60;98681.00;;;;10464440;28;20665;-78
2021/12/28 06:01:30;;;;;;;5.77;1.80;;;;;9.70;98670.00;;;;10474645;28;20212;-78
2021/12/28 06:06:32;;;;;;;3.10;1.60;;;;;9.60;98672.00;;;;10488416;28;20192;-78
2021/12/28 06:11:34;;;;;;;6.70;2.33;;;;;9.60;98683.00;;;;10509529;28;20656;-78
2021/12/28 06:16:37;;;;;;;3.93;1.47;;;;;9.60;98675.00;;;;10499860;28;20181;-78
2021/12/28 06:21:39;;;;;;;4.07;1.40;;;;;9.60;98677.00;;;;10517534;28;20212;-78
2021/12/28 06:26:42;;;;;;;3.47;1.60;;;;;9.60;98677.00;;;;10504175;28;20246;-78
2021/12/28 06:31:43;;;;;;;3.33;1.67;;;;;9.60;98682.00;;;;10533466;28;20192;-78
2021/12/28 06:36:45;;;;;;;4.00;1.80;;;;;9.60;98686.00;;;;10520681;28;20212;-79
2021/12/28 06:41:47;;;;;;;6.30;1.90;;;;;9.70;98686.00;;;;10486058;28;20210;-79
2021/12/28 06:46:49;;;;;;;4.40;1.63;;;;;9.70;98681.00;;;;10468780;28;20196;-79
2021/12/28 06:51:51;;;;;;;3.40;1.47;;;;;9.70;98685.00;;;;10501257;28;20193;-79
2021/12/28 06:56:53;;;;;;;3.20;1.60;;;;;9.70;98684.00;;;;10490956;28;20242;-79
2021/12/28 07:01:58;;;;;;;3.50;1.90;;;;;9.70;98684.00;;;;10497402;28;20250;-79
2021/12/28 07:07:00;;;;;;;7.90;2.00;;;;;9.70;98687.00;;;;10522100;28;20223;-79
2021/12/28 07:12:04;;;;;;;6.50;2.50;;;;;9.80;98691.00;;;;10491484;28;20193;-79
2021/12/28 07:17:06;;;;;;;4.47;1.93;;;;;9.80;98692.00;;;;10486056;28;20198;-79
2021/12/28 07:22:08;;;;;;;4.90;2.50;;;;;9.70;98698.00;;;;10485695;28;20221;-79
2021/12/28 07:27:10;;;;;;;4.47;2.23;;;;;9.80;98686.00;;;;10494268;28;20193;-78
2021/12/28 07:32:11;;;;;;;2.47;1.83;;;;;9.80;98677.00;;;;10458394;28;20231;-79
2021/12/28 07:37:14;;;;;;;3.67;2.27;;;;;9.80;98677.00;;;;10486459;28;20245;-79
2021/12/28 07:42:17;;;;;;;4.13;2.30;;;;;9.80;98687.00;;;;10505877;28;20198;-79
2021/12/28 07:47:19;;;;;;;6.67;2.60;;;;;9.90;98680.00;;;;10479759;28;20198;-79
2021/12/28 07:52:21;;;;;;;2.77;2.07;;;;;9.90;98685.00;;;;10452016;28;20311;-79
2021/12/28 07:57:23;;;;;;;3.53;2.10;;;;;10.00;98670.00;;;;10468073;28;20190;-78
2021/12/28 08:02:25;;;;;;;1.93;1.77;;;;;10.00;98675.00;;;;10475293;28;20614;-78
2021/12/28 08:07:27;;;;;;;4.77;2.40;;;;;10.00;98679.00;;;;10509635;28;20189;-79
2021/12/28 08:12:28;;;;;;;3.83;2.30;;;;;10.10;98671.00;;;;10517030;28;20177;-79
2021/12/28 08:17:31;;;;;;;4.43;2.67;;;;;10.10;98679.00;;;;10504467;28;20217;-79
2021/12/28 08:22:33;;;;;;;2.50;2.30;;;;;10.10;98677.00;;;;10502652;28;20277;-79
2021/12/28 08:27:35;;;;;;;3.23;2.10;;;;;10.10;98686.00;;;;10486862;28;20251;-78
2021/12/28 08:32:38;;;;;;;3.70;2.27;;;;;10.30;98679.00;;;;10486560;28;20525;-78
2021/12/28 08:37:40;;;;;;;2.63;2.33;;;;;10.40;98675.00;;;;10523348;28;20216;-78
2021/12/28 08:42:46;;;;;;;1.93;1.50;;;;;10.40;98678.00;;;;10489075;28;20209;-78
2021/12/28 08:47:49;;;;;;;4.30;2.43;;;;;10.40;98689.00;;;;10493058;28;20223;-79
2021/12/28 08:52:51;;;;;;;4.37;2.70;;;;;10.50;98682.00;;;;10482070;28;20189;-79
2021/12/28 08:57:53;;;;;;;3.87;2.40;;;;;10.60;98677.00;;;;10503387;28;20224;-79
2021/12/28 09:02:56;;;;;;;2.20;1.93;;;;;10.70;98661.00;;;;10504373;28;20204;-78
2021/12/28 09:08:00;;;;;;;2.80;2.27;;;;;10.80;98665.00;;;;10503757;28;20218;-78
2021/12/28 09:13:04;;;;;;;2.67;1.83;;;;;10.80;98674.00;;;;10486554;28;21704;-78
2021/12/28 09:18:07;;;;;;;4.27;2.07;;;;;10.80;98662.00;;;;10494483;28;20204;-78
2021/12/28 09:23:13;;;;;;;2.40;1.60;;;;;10.80;98649.00;;;;10461617;28;20209;-78
2021/12/28 09:28:15;;;;;;;1.93;1.73;;;;;11.00;98642.00;;;;10476878;28;20185;-79
2021/12/28 09:33:18;;;;;;;5.00;2.47;;;;;11.00;98640.00;;;;10485629;28;20201;-78
2021/12/28 09:38:21;;;;;;;3.93;2.20;;;;;11.20;98649.00;;;;10481897;28;20190;-78
2021/12/28 09:43:24;;;;;;;1.77;1.47;;;;;11.30;98636.00;;;;10503931;28;20212;-77
2021/12/28 09:48:26;;;;;;;2.73;1.50;;;;;11.30;98634.00;;;;10471423;28;21082;-78
2021/12/28 09:53:28;;;;;;;1.87;1.23;;;;;11.30;98641.00;;;;10513405;28;20185;-77
2021/12/28 09:58:34;;;;;;;1.47;1.20;;;;;11.40;98644.00;;;;10464451;28;20190;-77
2021/12/28 10:03:37;;;;;;;2.10;1.37;;;;;11.40;98635.00;;;;10486309;28;20258;-78
2021/12/28 10:08:39;;;;;;;1.20;1.10;;;;;11.40;98632.00;;;;10477279;28;20245;-78
2021/12/28 10:13:44;;;;;;;2.43;1.00;;;;;11.30;98620.00;;;;10508755;28;20189;-78
2021/12/28 10:18:46;;;;;;;2.67;0.80;;;;;11.20;98611.00;;;;10483600;28;20207;-79
2021/12/28 10:23:48;;;;;;;1.47;0.80;;;;;11.00;98608.00;;;;10463807;28;20217;-77
2021/12/28 10:28:50;;;;;;;2.23;0.90;;;;;10.90;98598.00;;;;10454522;28;20189;-77
2021/12/28 10:33:56;;;;;;;1.27;0.80;;;;;10.90;98601.00;;;;10501550;28;20208;-77
2021/12/28 10:38:58;;;;;;;3.90;1.27;;;;;10.90;98641.00;;;;10509991;28;20201;-79
2021/12/28 10:44:00;;;;;;;10.70;3.20;;;;;11.00;98632.00;;;;10506544;28;20201;-78
2021/12/28 10:49:04;;;;;;;24.03;3.13;;;;;11.00;98650.00;;;;10504379;28;20197;-78
2021/12/28 10:59:14;;;;;;;28.73;4.27;;;;;11.10;98651.00;;;;10502554;28;20193;-78
2021/12/28 11:04:18;;;;;;;27.33;5.57;;;;;11.30;98653.00;;;;10505202;28;20194;-77
2021/12/28 11:09:26;;;;;;;30.60;5.07;;;;;11.80;98638.00;;;;10477224;28;20242;-77
2021/12/28 11:14:30;;;;;;;28.23;5.13;;;;;11.70;98654.00;;;;10526447;28;20181;-77
2021/12/28 11:19:34;;;;;;;30.80;5.07;;;;;11.50;98656.00;;;;10486415;28;20190;-77
2021/12/28 11:24:44;;;;;;;39.60;6.53;;;;;11.40;98666.00;;;;10478184;28;20201;-77
2021/12/28 11:29:46;;;;;;;28.60;6.20;;;;;11.20;98653.00;;;;10500923;28;20198;-77
2021/12/28 11:34:48;;;;;;;32.23;5.87;;;;;11.00;98653.00;;;;10503763;28;20220;-76
2021/12/28 11:39:53;;;;;;;34.07;6.10;;;;;11.00;98662.00;;;;10518172;28;20189;-76
2021/12/28 11:44:55;;;;;;;27.87;6.30;;;;;11.00;98666.00;;;;10504245;28;20197;-77
2021/12/28 11:49:59;;;;;;;34.50;6.30;;;;;11.30;98667.00;;;;10481707;28;20284;-77
2021/12/28 11:55:01;;;;;;;39.00;7.13;;;;;11.40;98665.00;;;;10500449;28;20194;-77
2021/12/28 12:00:10;;;;;;;41.97;7.37;;;;;11.90;98670.00;;;;10483903;28;20280;-77
2021/12/28 12:05:23;;;;;;;29.60;6.40;;;;;11.40;98679.00;;;;10484601;28;20205;-77
2021/12/28 12:10:29;;;;;;;35.07;7.57;;;;;11.20;98669.00;;;;10478958;28;20288;-77
2021/12/28 12:15:41;;;;;;;38.43;7.10;;;;;11.20;98684.00;;;;10501393;28;20921;-79
2021/12/28 12:20:49;;;;;;;32.03;8.03;;;;;11.10;98662.00;;;;10509238;28;20232;-78
2021/12/28 12:25:59;;;;;;;29.10;6.10;;;;;11.80;98649.00;;;;10497184;28;20269;-78
2021/12/28 12:31:03;;;;;;;30.97;5.53;;;;;12.00;98653.00;;;;10483860;28;20246;-77
2021/12/28 12:36:08;;;;;;;18.43;4.17;;;;;12.00;98638.00;;;;10490525;28;20237;-77
2021/12/28 12:41:14;;;;;;;28.30;5.10;;;;;11.40;98649.00;;;;10528887;28;20202;-77
2021/12/28 12:46:29;;;;;;;23.87;5.13;;;;;11.20;98659.00;;;;10478339;28;20189;-77
2021/12/28 12:51:43;;;;;;;28.50;4.87;;;;;10.80;98659.00;;;;10501634;28;20189;-77
2021/12/28 12:56:51;;;;;;;29.27;5.43;;;;;10.30;98667.00;;;;10495495;28;20217;-79
2021/12/28 13:02:01;;;;;;;23.37;4.50;;;;;9.90;98643.00;;;;10489739;28;20208;-79
2021/12/28 13:07:26;;;;;;;18.90;4.13;;;;;9.40;98636.00;;;;10499066;28;20638;-79
2021/12/28 13:12:30;;;;;;;19.83;4.73;;;;;9.10;98663.00;;;;10502150;28;20193;-79
2021/12/28 13:17:36;;;;;;;18.13;4.37;;;;;8.90;98682.00;;;;10484965;28;20197;-78
2021/12/28 13:22:41;;;;;;;25.00;4.97;;;;;8.70;98661.00;;;;10501183;28;20576;-79
2021/12/28 13:27:45;;;;;;;26.87;4.60;;;;;8.60;98666.00;;;;10502527;28;20266;-78
2021/12/28 13:32:47;;;;;;;27.80;5.60;;;;;8.50;98669.00;;;;10474601;28;20198;-79
2021/12/28 13:37:57;;;;;;;26.73;4.90;;;;;8.40;98661.00;;;;10487154;28;20261;-79
2021/12/28 13:42:59;;;;;;;33.43;5.77;;;;;8.40;98626.00;;;;10480695;28;20317;-79
2021/12/28 13:48:10;;;;;;;35.50;5.67;;;;;8.50;98620.00;;;;10480579;28;20249;-79
2021/12/28 13:53:17;;;;;;;39.73;6.50;;;;;8.50;98600.00;;;;10480568;28;20181;-79
2021/12/28 13:58:23;;;;;;;44.50;7.83;;;;;8.60;98585.00;;;;10513299;28;20196;-79
2021/12/28 14:03:27;;;;;;;34.60;6.07;;;;;8.60;98579.00;;;;10481942;28;20208;-79
2021/12/28 14:08:37;;;;;;;23.27;5.47;;;;;8.70;98574.00;;;;10489668;28;20551;-80
2021/12/28 14:13:44;;;;;;;32.43;6.40;;;;;8.60;98561.00;;;;10502341;28;20189;-80
2021/12/28 14:18:49;;;;;;;29.70;5.30;;;;;8.60;98585.00;;;;10462937;28;20287;-79
2021/12/28 14:24:17;;;;;;;33.53;5.50;;;;;8.60;98594.00;;;;10504098;28;20239;-79
2021/12/28 14:29:26;;;;;;;33.30;6.13;;;;;8.60;98595.00;;;;10499517;28;20200;-78
2021/12/28 14:34:48;;;;;;;21.53;4.03;;;;;8.60;98614.00;;;;10525143;28;20208;-78
2021/12/28 14:39:52;;;;;;;26.50;4.40;;;;;8.50;98603.00;;;;10492936;28;20193;-80
2021/12/28 14:45:07;;;;;;;24.43;4.00;;;;;8.50;98601.00;;;;10551947;28;20212;-80
2021/12/28 14:50:24;;;;;;;21.00;5.77;;;;;8.60;98598.00;;;;10477886;28;20591;-78
2021/12/28 14:55:44;;;;;;;19.73;4.33;;;;;8.60;98595.00;;;;10513690;28;20184;-78
2021/12/28 15:00:50;;;;;;;16.33;3.33;;;;;8.60;98604.00;;;;10505809;28;20203;-79
2021/12/28 15:05:57;;;;;;;13.57;2.90;;;;;8.50;98596.00;;;;10517910;28;20232;-78
2021/12/28 15:11:00;;;;;;;16.53;3.13;;;;;8.50;98602.00;;;;10499535;28;20625;-79
2021/12/28 15:16:03;;;;;;;20.23;3.53;;;;;8.60;98620.00;;;;10527865;28;20191;-79
2021/12/28 15:21:05;;;;;;;21.00;4.07;;;;;8.60;98628.00;;;;10502775;28;20287;-78
2021/12/28 15:26:07;;;;;;;24.27;5.37;;;;;8.70;98627.00;;;;10517153;28;20204;-79
2021/12/28 15:31:09;;;;;;;21.50;3.83;;;;;8.70;98644.00;;;;10505763;28;20208;-79
2021/12/28 15:36:13;;;;;;;26.07;5.23;;;;;8.70;98654.00;;;;10499147;28;20616;-80
2021/12/28 15:41:15;;;;;;;24.67;5.00;;;;;8.70;98667.00;;;;10499863;28;20196;-79
2021/12/28 15:46:18;;;;;;;26.17;4.47;;;;;8.70;98681.00;;;;10504831;28;20265;-79
2021/12/28 15:51:19;;;;;;;31.00;4.87;;;;;8.70;98696.00;;;;10525163;28;20199;-79
2021/12/28 15:56:21;;;;;;;31.53;5.83;;;;;8.70;98701.00;;;;10504525;28;20189;-79
2021/12/28 16:01:24;;;;;;;23.53;4.63;;;;;8.80;98702.00;;;;10508792;28;20276;-80
2021/12/28 16:06:28;;;;;;;20.57;3.70;;;;;8.80;98709.00;;;;10513533;28;20228;-79
2021/12/28 16:11:30;;;;;;;25.37;4.93;;;;;8.80;98715.00;;;;10560995;28;20176;-81
2021/12/28 16:16:33;;;;;;;24.63;5.40;;;;;8.80;98734.00;;;;10529137;28;20320;-80
2021/12/28 16:21:35;;;;;;;17.23;4.03;;;;;8.90;98733.00;;;;10533834;27;20295;-80
2021/12/28 16:26:37;;;;;;;20.97;4.27;;;;;8.90;98737.00;;;;10527009;28;20196;-80
2021/12/28 16:31:39;;;;;;;17.60;3.03;;;;;9.00;98744.00;;;;10530472;28;20271;-80
2021/12/28 16:36:43;;;;;;;26.33;4.20;;;;;9.00;98769.00;;;;10532317;27;20230;-80
2021/12/28 16:41:45;;;;;;;21.43;3.67;;;;;9.00;98778.00;;;;10541292;27;20195;-80
2021/12/28 16:46:51;;;;;;;20.97;4.20;;;;;9.00;98800.00;;;;10534634;28;20207;-80
2021/12/28 16:51:53;;;;;;;21.87;3.63;;;;;9.10;98799.00;;;;10517249;27;20276;-80
2021/12/28 16:56:55;;;;;;;16.77;4.03;;;;;9.10;98797.00;;;;10515155;28;20192;-80
2021/12/28 17:01:57;;;;;;;17.93;3.50;;;;;9.00;98808.00;;;;10526051;28;20193;-79
2021/12/28 17:06:59;;;;;;;18.30;4.23;;;;;9.00;98837.00;;;;10528253;28;20205;-80
2021/12/28 17:12:02;;;;;;;19.17;4.70;;;;;9.00;98839.00;;;;10544347;28;20565;-80
2021/12/28 17:17:04;;;;;;;18.83;3.33;;;;;9.00;98851.00;;;;10520104;28;20196;-80
2021/12/28 17:22:07;;;;;;;13.37;2.87;;;;;9.00;98861.00;;;;10512704;28;20254;-80
2021/12/28 17:27:10;;;;;;;12.97;3.43;;;;;9.00;98876.00;;;;10530964;28;20678;-80
2021/12/28 17:32:11;;;;;;;12.27;3.83;;;;;9.00;98896.00;;;;10529976;28;20709;-80
2021/12/28 17:37:15;;;;;;;17.60;3.77;;;;;9.00;98916.00;;;;10512444;27;20258;-80
2021/12/28 17:42:16;;;;;;;12.63;4.50;;;;;9.00;98923.00;;;;10537034;28;20249;-80
2021/12/28 17:47:18;;;;;;;17.73;5.30;;;;;9.00;98938.00;;;;10527344;28;20572;-80
2021/12/28 17:52:21;;;;;;;18.13;5.77;;;;;9.10;98946.00;;;;10523100;28;20185;-80
2021/12/28 17:57:23;;;;;;;16.10;5.00;;;;;9.10;98967.00;;;;10518409;28;20709;-80
2021/12/28 18:02:25;;;;;;;27.47;5.80;;;;;9.00;98983.00;;;;10498180;28;20266;-80
2021/12/28 18:07:27;;;;;;;17.87;5.37;;;;;9.00;99007.00;;;;10549753;27;20195;-81
2021/12/28 18:12:29;;;;;;;16.60;4.93;;;;;9.00;99025.00;;;;10517729;28;20184;-80
2021/12/28 18:17:32;;;;;;;10.93;4.70;;;;;9.00;99032.00;;;;10525562;27;20204;-80
2021/12/28 18:22:34;;;;;;;15.73;5.73;;;;;9.00;99051.00;;;;10531263;28;20262;-80
2021/12/28 18:27:36;;;;;;;14.17;6.43;;;;;9.00;99056.00;;;;10496750;28;20188;-80
2021/12/28 18:32:58;;;;;;;13.90;6.13;;;;;9.10;99067.00;;;;10526772;28;20206;-81
2021/12/28 18:38:03;;;;;;;17.00;6.27;;;;;9.10;99076.00;;;;10529517;28;20192;-80
2021/12/28 18:43:08;;;;;;;8.77;4.47;;;;;9.10;99102.00;;;;10499424;28;20561;-81
2021/12/28 18:48:12;;;;;;;14.03;5.47;;;;;9.10;99104.00;;;;10529718;28;20192;-81
2021/12/28 18:53:21;;;;;;;9.47;5.13;;;;;9.00;99123.00;;;;10520613;28;20188;-80
2021/12/28 18:58:26;;;;;;;15.37;5.20;;;;;9.00;99132.00;;;;10530338;28;20176;-81
2021/12/28 19:03:28;;;;;;;13.03;5.47;;;;;9.00;99156.00;;;;10527357;28;20203;-80
2021/12/28 19:08:30;;;;;;;13.67;5.97;;;;;9.00;99165.00;;;;10511939;28;20192;-80
2021/12/28 19:13:33;;;;;;;17.07;6.57;;;;;9.00;99181.00;;;;10516128;28;20210;-80
2021/12/28 19:18:37;;;;;;;20.53;6.77;;;;;9.00;99195.00;;;;10543147;27;20217;-80
2021/12/28 19:23:40;;;;;;;14.60;6.50;;;;;9.00;99212.00;;;;10527236;28;20216;-80
2021/12/28 19:28:50;;;;;;;14.23;6.77;;;;;9.00;99214.00;;;;10517893;27;20195;-80
2021/12/28 19:33:53;;;;;;;17.60;8.57;;;;;9.00;99228.00;;;;10536762;28;20228;-80
2021/12/28 19:38:56;;;;;;;17.03;8.53;;;;;9.00;99252.00;;;;10561100;27;20241;-81
2021/12/28 19:44:00;;;;;;;16.47;7.67;;;;;9.00;99265.00;;;;10529538;27;20779;-80
2021/12/28 19:49:04;;;;;;;19.27;9.67;;;;;9.00;99282.00;;;;10516367;28;20196;-80
2021/12/28 19:54:06;;;;;;;22.13;9.60;;;;;9.00;99286.00;;;;10507163;27;20184;-81
2021/12/28 19:59:08;;;;;;;17.47;10.03;;;;;9.10;99298.00;;;;10510989;28;20192;-80
2021/12/28 20:04:11;;;;;;;15.53;9.80;;;;;9.10;99312.00;;;;10527196;28;20258;-81
2021/12/28 20:09:13;;;;;;;22.53;11.47;;;;;9.10;99328.00;;;;10540262;27;20195;-81
2021/12/28 20:14:15;;;;;;;16.57;9.43;;;;;9.00;99347.00;;;;10528888;27;20189;-80
2021/12/28 20:19:18;;;;;;;15.20;9.60;;;;;9.00;99342.00;;;;10507603;28;20257;-80
2021/12/28 20:24:20;;;;;;;21.33;10.53;;;;;9.00;99354.00;;;;10532890;28;20219;-80
2021/12/28 20:29:23;;;;;;;18.80;9.93;;;;;9.00;99370.00;;;;10497384;27;20210;-81
2021/12/28 20:34:25;;;;;;;17.70;10.67;;;;;9.00;99376.00;;;;10513439;28;20219;-80
2021/12/28 20:39:28;;;;;;;15.73;9.97;;;;;9.00;99395.00;;;;10542929;27;20660;-81
2021/12/28 20:44:30;;;;;;;17.03;10.00;;;;;9.00;99412.00;;;;10505498;27;20195;-80
2021/12/28 20:49:32;;;;;;;17.70;10.13;;;;;9.00;99430.00;;;;10533281;28;20188;-81
2021/12/28 20:54:35;;;;;;;18.97;10.40;;;;;9.00;99448.00;;;;10527523;27;20238;-80
2021/12/28 20:59:37;;;;;;;15.40;10.90;;;;;9.00;99449.00;;;;10526400;28;20197;-80
2021/12/28 21:04:39;;;;;;;18.87;10.83;;;;;9.00;99457.00;;;;10497506;27;20685;-79
2021/12/28 21:09:45;;;;;;;20.80;11.40;;;;;9.00;99472.00;;;;10528716;27;20196;-80
2021/12/28 21:14:49;;;;;;;22.57;10.50;;;;;9.00;99487.00;;;;10508836;28;20192;-80
2021/12/28 21:19:51;;;;;;;16.83;11.80;;;;;9.00;99502.00;;;;10511703;28;20206;-80
2021/12/28 21:24:58;;;;;;;19.10;11.87;;;;;9.00;99515.00;;;;10534459;28;20231;-80
2021/12/28 21:30:23;;;;;;;18.37;10.27;;;;;9.00;99515.00;;;;10521495;28;20961;-79
2021/12/28 21:35:27;;;;;;;21.47;11.80;;;;;9.00;99524.00;;;;10514510;28;20215;-80
2021/12/28 21:40:30;;;;;;;22.40;12.17;;;;;9.00;99532.00;;;;10517708;28;20196;-79
2021/12/28 21:45:32;;;;;;;22.73;11.33;;;;;9.00;99548.00;;;;10499046;28;20196;-79
2021/12/28 21:50:34;;;;;;;21.03;12.00;;;;;9.00;99553.00;;;;10510361;28;20196;-80
2021/12/28 21:55:36;;;;;;;20.50;12.17;;;;;9.00;99570.00;;;;10532719;28;20234;-80
2021/12/28 22:00:39;;;;;;;20.03;11.43;;;;;9.00;99571.00;;;;10497576;28;20575;-80
2021/12/28 22:05:41;;;;;;;22.03;12.87;;;;;9.00;99586.00;;;;10489806;28;20552;-80
2021/12/28 22:10:43;;;;;;;20.17;12.27;;;;;9.00;99588.00;;;;10516682;28;20386;-79
2021/12/28 22:15:45;;;;;;;22.57;12.37;;;;;9.10;99598.00;;;;10523527;28;20189;-79
2021/12/28 22:20:48;;;;;;;19.43;12.13;;;;;9.10;99606.00;;;;10506841;27;20211;-79
2021/12/28 22:25:54;;;;;;;17.20;10.60;;;;;9.10;99623.00;;;;10500381;28;20290;-79
2021/12/28 22:30:58;;;;;;;17.53;9.97;;;;;9.10;99634.00;;;;10528348;28;20616;-79
2021/12/28 22:36:06;;;;;;;14.43;9.17;;;;;9.10;99647.00;;;;10514854;28;20230;-79
2021/12/28 22:41:08;;;;;;;13.80;8.87;;;;;9.10;99646.00;;;;10523876;28;20215;-78
2021/12/28 22:46:15;;;;;;;12.53;6.90;;;;;9.10;99647.00;;;;10540616;28;20200;-78
2021/12/28 22:51:17;;;;;;;13.43;6.90;;;;;9.10;99646.00;;;;10513608;28;20192;-78
2021/12/28 22:56:19;;;;;;;13.63;6.70;;;;;9.10;99652.00;;;;10532852;28;20211;-78
2021/12/28 23:01:20;;;;;;;9.40;5.93;;;;;9.00;99666.00;;;;10538708;27;20244;-79
2021/12/28 23:06:23;;;;;;;10.87;5.43;;;;;9.10;99667.00;;;;10505379;28;20239;-78
2021/12/28 23:11:25;;;;;;;6.33;4.50;;;;;9.10;99677.00;;;;10528357;28;20188;-78
2021/12/28 23:16:28;;;;;;;12.93;4.83;;;;;9.10;99690.00;;;;10504806;28;20225;-78
2021/12/28 23:21:30;;;;;;;9.90;4.53;;;;;9.10;99715.00;;;;10509383;28;20760;-78
2021/12/28 23:26:33;;;;;;;7.57;4.17;;;;;9.10;99719.00;;;;10528018;28;20193;-78
2021/12/28 23:31:39;;;;;;;9.43;4.50;;;;;9.10;99734.00;;;;10527581;27;20188;-78
2021/12/28 23:36:42;;;;;;;11.07;4.57;;;;;9.10;99732.00;;;;10518950;28;20270;-78
2021/12/28 23:41:45;;;;;;;11.20;4.70;;;;;9.10;99741.00;;;;10504940;28;20200;-78
2021/12/28 23:46:47;;;;;;;7.27;4.13;;;;;9.10;99759.00;;;;10546764;27;20623;-78
2021/12/28 23:51:49;;;;;;;8.33;4.30;;;;;9.10;99761.00;;;;10507258;28;20194;-78
2021/12/28 23:56:50;;;;;;;7.47;4.87;;;;;9.10;99774.00;;;;10538710;28;20761;-78
